sensor_id;sensor_type;location;lat;lon;timestamp;temperature;humidity
20560;DHT22;10438;51.454;6.718;2022-12-16T00:01:50;-3.90;99.90
20560;DHT22;10438;51.454;6.718;2022-12-16T00:04:16;-3.90;99.90
20560;DHT22;10438;51.454;6.718;2022-12-16T00:06:42;-3.90;99.90
20560;DHT22;10438;51.454;6.718;2022-12-16T00:09:08;-3.90;99.90
20560;DHT22;10438;51.454;6.718;2022-12-16T00:11:33;-3.90;99.90
20560;DHT22;10438;51.454;6.718;2022-12-16T00:14:00;-3.90;99.90
20560;DHT22;10438;51.454;6.718;2022-12-16T00:16:26;-4.00;99.90
20560;DHT22;10438;51.454;6.718;2022-12-16T00:18:51;-4.00;99.90
20560;DHT22;10438;51.454;6.718;2022-12-16T00:21:17;-4.00;99.90
20560;DHT22;10438;51.454;6.718;2022-12-16T00:23:43;-4.00;99.90
20560;DHT22;10438;51.454;6.718;2022-12-16T00:26:09;-4.00;99.90
20560;DHT22;10438;51.454;6.718;2022-12-16T00:28:35;-4.00;99.90
20560;DHT22;10438;51.454;6.718;2022-12-16T00:31:01;-4.00;99.90
20560;DHT22;10438;51.454;6.718;2022-12-16T00:33:27;-4.00;99.90
20560;DHT22;10438;51.454;6.718;2022-12-16T00:35:53;-4.00;99.90
20560;DHT22;10438;51.454;6.718;2022-12-16T00:38:20;-4.00;99.90
20560;DHT22;10438;51.454;6.718;2022-12-16T00:40:46;-4.00;99.90
20560;DHT22;10438;51.454;6.718;2022-12-16T00:43:11;-3.90;99.90
20560;DHT22;10438;51.454;6.718;2022-12-16T00:45:37;-4.00;99.90
20560;DHT22;10438;51.454;6.718;2022-12-16T00:48:04;-4.00;99.90
20560;DHT22;10438;51.454;6.718;2022-12-16T00:50:30;-4.00;99.90
20560;DHT22;10438;51.454;6.718;2022-12-16T00:52:55;-4.00;99.90
20560;DHT22;10438;51.454;6.718;2022-12-16T00:55:21;-4.00;99.90
20560;DHT22;10438;51.454;6.718;2022-12-16T00:57:47;-4.00;99.90
20560;DHT22;10438;51.454;6.718;2022-12-16T01:00:14;-4.00;99.90
20560;DHT22;10438;51.454;6.718;2022-12-16T01:02:45;-4.00;99.90
20560;DHT22;10438;51.454;6.718;2022-12-16T01:05:12;-4.00;99.90
20560;DHT22;10438;51.454;6.718;2022-12-16T01:07:38;-4.00;99.90
20560;DHT22;10438;51.454;6.718;2022-12-16T01:10:04;-4.00;99.90
20560;DHT22;10438;51.454;6.718;2022-12-16T01:12:31;-4.00;99.90
20560;DHT22;10438;51.454;6.718;2022-12-16T01:14:56;-4.00;99.90
20560;DHT22;10438;51.454;6.718;2022-12-16T01:17:22;-4.00;99.90
20560;DHT22;10438;51.454;6.718;2022-12-16T01:19:50;-4.00;99.90
20560;DHT22;10438;51.454;6.718;2022-12-16T01:22:16;-4.00;99.90
20560;DHT22;10438;51.454;6.718;2022-12-16T01:24:43;-4.00;99.90
20560;DHT22;10438;51.454;6.718;2022-12-16T01:27:08;-4.00;99.90
20560;DHT22;10438;51.454;6.718;2022-12-16T01:29:34;-4.00;99.90
20560;DHT22;10438;51.454;6.718;2022-12-16T01:31:59;-4.00;99.90
20560;DHT22;10438;51.454;6.718;2022-12-16T01:34:25;-4.00;99.90
20560;DHT22;10438;51.454;6.718;2022-12-16T01:36:50;-4.00;99.90
20560;DHT22;10438;51.454;6.718;2022-12-16T01:39:16;-4.00;99.90
20560;DHT22;10438;51.454;6.718;2022-12-16T01:41:41;-3.90;99.90
20560;DHT22;10438;51.454;6.718;2022-12-16T01:44:15;-3.90;99.90
20560;DHT22;10438;51.454;6.718;2022-12-16T01:46:47;-3.90;99.90
20560;DHT22;10438;51.454;6.718;2022-12-16T01:49:36;-3.80;99.90
20560;DHT22;10438;51.454;6.718;2022-12-16T01:52:05;-3.80;99.90
20560;DHT22;10438;51.454;6.718;2022-12-16T01:54:40;-3.80;99.90
20560;DHT22;10438;51.454;6.718;2022-12-16T01:57:18;-3.80;99.90
20560;DHT22;10438;51.454;6.718;2022-12-16T01:59:48;-3.70;99.90
20560;DHT22;10438;51.454;6.718;2022-12-16T02:02:15;-3.70;99.90
20560;DHT22;10438;51.454;6.718;2022-12-16T02:04:41;-3.70;99.90
20560;DHT22;10438;51.454;6.718;2022-12-16T02:07:26;-3.70;99.90
20560;DHT22;10438;51.454;6.718;2022-12-16T02:09:52;-3.60;99.90
20560;DHT22;10438;51.454;6.718;2022-12-16T02:12:39;-3.60;99.90
20560;DHT22;10438;51.454;6.718;2022-12-16T02:15:17;-3.60;99.90
20560;DHT22;10438;51.454;6.718;2022-12-16T02:17:56;-3.60;99.90
20560;DHT22;10438;51.454;6.718;2022-12-16T02:20:55;-3.60;99.90
20560;DHT22;10438;51.454;6.718;2022-12-16T02:23:48;-3.60;99.90
20560;DHT22;10438;51.454;6.718;2022-12-16T02:39:42;-3.50;99.90
20560;DHT22;10438;51.454;6.718;2022-12-16T02:42:20;-3.60;99.90
20560;DHT22;10438;51.454;6.718;2022-12-16T02:45:11;-3.60;99.90
20560;DHT22;10438;51.454;6.718;2022-12-16T02:47:38;-3.50;99.90
20560;DHT22;10438;51.454;6.718;2022-12-16T02:50:12;-3.60;99.90
20560;DHT22;10438;51.454;6.718;2022-12-16T02:52:39;-3.50;99.90
20560;DHT22;10438;51.454;6.718;2022-12-16T02:55:06;-3.50;99.90
20560;DHT22;10438;51.454;6.718;2022-12-16T03:00:39;-3.60;99.90
20560;DHT22;10438;51.454;6.718;2022-12-16T03:03:54;-3.60;99.90
20560;DHT22;10438;51.454;6.718;2022-12-16T03:06:18;-3.50;99.90
20560;DHT22;10438;51.454;6.718;2022-12-16T03:08:50;-3.50;99.90
20560;DHT22;10438;51.454;6.718;2022-12-16T03:11:17;-3.60;99.90
20560;DHT22;10438;51.454;6.718;2022-12-16T03:13:50;-3.60;99.90
20560;DHT22;10438;51.454;6.718;2022-12-16T03:16:19;-3.60;99.90
20560;DHT22;10438;51.454;6.718;2022-12-16T03:18:49;-3.50;99.90
20560;DHT22;10438;51.454;6.718;2022-12-16T03:21:16;-3.60;99.90
20560;DHT22;10438;51.454;6.718;2022-12-16T03:23:52;-3.60;99.90
20560;DHT22;10438;51.454;6.718;2022-12-16T03:26:27;-3.60;99.90
20560;DHT22;10438;51.454;6.718;2022-12-16T03:29:01;-3.60;99.90
20560;DHT22;10438;51.454;6.718;2022-12-16T03:36:58;-3.60;99.90
20560;DHT22;10438;51.454;6.718;2022-12-16T03:39:24;-3.60;99.90
20560;DHT22;10438;51.454;6.718;2022-12-16T03:41:52;-3.60;99.90
20560;DHT22;10438;51.454;6.718;2022-12-16T03:44:23;-3.60;99.90
20560;DHT22;10438;51.454;6.718;2022-12-16T03:46:49;-3.60;99.90
20560;DHT22;10438;51.454;6.718;2022-12-16T03:49:15;-3.60;99.90
20560;DHT22;10438;51.454;6.718;2022-12-16T03:51:41;-3.60;99.90
20560;DHT22;10438;51.454;6.718;2022-12-16T03:54:07;-3.60;99.90
20560;DHT22;10438;51.454;6.718;2022-12-16T03:56:32;-3.60;99.90
20560;DHT22;10438;51.454;6.718;2022-12-16T03:58:58;-3.70;99.90
20560;DHT22;10438;51.454;6.718;2022-12-16T04:01:23;-3.70;99.90
20560;DHT22;10438;51.454;6.718;2022-12-16T04:03:49;-3.60;99.90
20560;DHT22;10438;51.454;6.718;2022-12-16T04:06:14;-3.70;99.90
20560;DHT22;10438;51.454;6.718;2022-12-16T04:08:47;-3.70;99.90
20560;DHT22;10438;51.454;6.718;2022-12-16T04:11:13;-3.70;99.90
20560;DHT22;10438;51.454;6.718;2022-12-16T04:13:58;-3.70;99.90
20560;DHT22;10438;51.454;6.718;2022-12-16T04:16:46;-3.70;99.90
20560;DHT22;10438;51.454;6.718;2022-12-16T04:19:32;-3.70;99.90
20560;DHT22;10438;51.454;6.718;2022-12-16T04:22:21;-3.70;99.90
20560;DHT22;10438;51.454;6.718;2022-12-16T04:25:11;-3.80;99.90
20560;DHT22;10438;51.454;6.718;2022-12-16T04:27:37;-3.80;99.90
20560;DHT22;10438;51.454;6.718;2022-12-16T04:30:03;-3.70;99.90
20560;DHT22;10438;51.454;6.718;2022-12-16T04:32:54;-3.70;99.90
20560;DHT22;10438;51.454;6.718;2022-12-16T04:35:38;-3.70;99.90
20560;DHT22;10438;51.454;6.718;2022-12-16T04:38:22;-3.60;99.90
20560;DHT22;10438;51.454;6.718;2022-12-16T04:41:07;-3.60;99.90
20560;DHT22;10438;51.454;6.718;2022-12-16T04:43:51;-3.70;99.90
20560;DHT22;10438;51.454;6.718;2022-12-16T04:46:35;-3.70;99.90
20560;DHT22;10438;51.454;6.718;2022-12-16T04:49:19;-3.70;99.90
20560;DHT22;10438;51.454;6.718;2022-12-16T04:52:04;-3.80;99.90
20560;DHT22;10438;51.454;6.718;2022-12-16T04:54:48;-3.80;99.90
20560;DHT22;10438;51.454;6.718;2022-12-16T04:57:32;-3.90;99.90
20560;DHT22;10438;51.454;6.718;2022-12-16T05:00:16;-3.90;99.90
20560;DHT22;10438;51.454;6.718;2022-12-16T05:03:01;-3.90;99.90
20560;DHT22;10438;51.454;6.718;2022-12-16T05:05:45;-3.90;99.90
20560;DHT22;10438;51.454;6.718;2022-12-16T05:08:29;-3.90;99.90
20560;DHT22;10438;51.454;6.718;2022-12-16T05:11:13;-3.90;99.90
20560;DHT22;10438;51.454;6.718;2022-12-16T05:13:57;-3.90;99.90
20560;DHT22;10438;51.454;6.718;2022-12-16T05:16:41;-3.90;99.90
20560;DHT22;10438;51.454;6.718;2022-12-16T05:19:25;-3.90;99.90
20560;DHT22;10438;51.454;6.718;2022-12-16T05:22:09;-3.90;99.90
20560;DHT22;10438;51.454;6.718;2022-12-16T05:24:53;-3.90;99.90
20560;DHT22;10438;51.454;6.718;2022-12-16T05:27:37;-4.00;99.90
20560;DHT22;10438;51.454;6.718;2022-12-16T05:30:22;-3.90;99.90
20560;DHT22;10438;51.454;6.718;2022-12-16T05:33:06;-4.00;99.90
20560;DHT22;10438;51.454;6.718;2022-12-16T05:35:50;-4.00;99.90
20560;DHT22;10438;51.454;6.718;2022-12-16T05:38:34;-3.90;99.90
20560;DHT22;10438;51.454;6.718;2022-12-16T05:41:18;-4.00;99.90
20560;DHT22;10438;51.454;6.718;2022-12-16T05:44:02;-4.00;99.90
20560;DHT22;10438;51.454;6.718;2022-12-16T05:46:46;-4.00;99.90
20560;DHT22;10438;51.454;6.718;2022-12-16T05:49:30;-4.10;99.90
20560;DHT22;10438;51.454;6.718;2022-12-16T05:52:14;-4.00;99.90
20560;DHT22;10438;51.454;6.718;2022-12-16T05:54:58;-4.10;99.90
20560;DHT22;10438;51.454;6.718;2022-12-16T05:57:42;-4.10;99.90
20560;DHT22;10438;51.454;6.718;2022-12-16T06:00:26;-4.10;99.90
20560;DHT22;10438;51.454;6.718;2022-12-16T06:03:10;-4.10;99.90
20560;DHT22;10438;51.454;6.718;2022-12-16T06:05:54;-4.10;99.90
20560;DHT22;10438;51.454;6.718;2022-12-16T06:08:38;-4.10;99.90
20560;DHT22;10438;51.454;6.718;2022-12-16T06:11:22;-4.10;99.90
20560;DHT22;10438;51.454;6.718;2022-12-16T06:14:06;-4.10;99.90
20560;DHT22;10438;51.454;6.718;2022-12-16T06:16:51;-4.10;99.90
20560;DHT22;10438;51.454;6.718;2022-12-16T06:19:35;-4.10;99.90
20560;DHT22;10438;51.454;6.718;2022-12-16T06:22:19;-4.20;99.90
20560;DHT22;10438;51.454;6.718;2022-12-16T06:25:03;-4.20;99.90
20560;DHT22;10438;51.454;6.718;2022-12-16T06:27:50;-4.20;99.90
20560;DHT22;10438;51.454;6.718;2022-12-16T06:30:34;-4.30;99.90
20560;DHT22;10438;51.454;6.718;2022-12-16T06:33:18;-4.30;99.90
20560;DHT22;10438;51.454;6.718;2022-12-16T06:36:03;-4.30;99.90
20560;DHT22;10438;51.454;6.718;2022-12-16T06:38:47;-4.20;99.90
20560;DHT22;10438;51.454;6.718;2022-12-16T06:41:31;-4.20;99.90
20560;DHT22;10438;51.454;6.718;2022-12-16T06:44:15;-4.20;99.90
20560;DHT22;10438;51.454;6.718;2022-12-16T06:46:59;-4.30;99.90
20560;DHT22;10438;51.454;6.718;2022-12-16T06:49:43;-4.20;99.90
20560;DHT22;10438;51.454;6.718;2022-12-16T06:52:27;-4.30;99.90
20560;DHT22;10438;51.454;6.718;2022-12-16T06:55:13;-4.30;99.90
20560;DHT22;10438;51.454;6.718;2022-12-16T06:57:58;-4.20;99.90
20560;DHT22;10438;51.454;6.718;2022-12-16T07:00:42;-4.10;99.90
20560;DHT22;10438;51.454;6.718;2022-12-16T07:03:26;-4.10;99.90
20560;DHT22;10438;51.454;6.718;2022-12-16T07:06:10;-4.10;99.90
20560;DHT22;10438;51.454;6.718;2022-12-16T07:08:54;-4.10;99.90
20560;DHT22;10438;51.454;6.718;2022-12-16T07:11:38;-4.00;99.90
20560;DHT22;10438;51.454;6.718;2022-12-16T07:14:22;-4.10;99.90
20560;DHT22;10438;51.454;6.718;2022-12-16T07:17:06;-4.10;99.90
20560;DHT22;10438;51.454;6.718;2022-12-16T07:19:50;-4.10;99.90
20560;DHT22;10438;51.454;6.718;2022-12-16T07:22:34;-4.10;99.90
20560;DHT22;10438;51.454;6.718;2022-12-16T07:25:18;-4.00;99.90
20560;DHT22;10438;51.454;6.718;2022-12-16T07:28:02;-4.00;99.90
20560;DHT22;10438;51.454;6.718;2022-12-16T07:30:46;-4.00;99.90
20560;DHT22;10438;51.454;6.718;2022-12-16T07:33:30;-4.00;99.90
20560;DHT22;10438;51.454;6.718;2022-12-16T07:36:14;-4.00;99.90
20560;DHT22;10438;51.454;6.718;2022-12-16T07:38:58;-4.00;99.90
20560;DHT22;10438;51.454;6.718;2022-12-16T07:41:42;-3.90;99.90
20560;DHT22;10438;51.454;6.718;2022-12-16T07:44:26;-3.90;99.90
20560;DHT22;10438;51.454;6.718;2022-12-16T07:47:10;-3.90;99.90
20560;DHT22;10438;51.454;6.718;2022-12-16T07:49:54;-3.90;99.90
20560;DHT22;10438;51.454;6.718;2022-12-16T07:52:38;-3.90;99.90
20560;DHT22;10438;51.454;6.718;2022-12-16T07:55:22;-3.90;99.90
20560;DHT22;10438;51.454;6.718;2022-12-16T07:58:08;-3.80;99.90
20560;DHT22;10438;51.454;6.718;2022-12-16T08:00:52;-3.90;99.90
20560;DHT22;10438;51.454;6.718;2022-12-16T08:03:36;-3.80;99.90
20560;DHT22;10438;51.454;6.718;2022-12-16T08:06:20;-3.80;99.90
20560;DHT22;10438;51.454;6.718;2022-12-16T08:09:04;-3.80;99.90
20560;DHT22;10438;51.454;6.718;2022-12-16T08:11:48;-3.80;99.90
20560;DHT22;10438;51.454;6.718;2022-12-16T08:14:32;-3.70;99.90
20560;DHT22;10438;51.454;6.718;2022-12-16T08:17:17;-3.70;99.90
20560;DHT22;10438;51.454;6.718;2022-12-16T08:20:01;-3.70;99.90
20560;DHT22;10438;51.454;6.718;2022-12-16T08:22:45;-3.60;99.90
20560;DHT22;10438;51.454;6.718;2022-12-16T08:25:29;-3.60;99.90
20560;DHT22;10438;51.454;6.718;2022-12-16T08:28:13;-3.60;99.90
20560;DHT22;10438;51.454;6.718;2022-12-16T08:30:57;-3.60;99.90
20560;DHT22;10438;51.454;6.718;2022-12-16T08:33:41;-3.60;99.90
20560;DHT22;10438;51.454;6.718;2022-12-16T08:36:25;-3.60;99.90
20560;DHT22;10438;51.454;6.718;2022-12-16T08:39:09;-3.60;99.90
20560;DHT22;10438;51.454;6.718;2022-12-16T08:41:53;-3.60;99.90
20560;DHT22;10438;51.454;6.718;2022-12-16T08:44:37;-3.60;99.90
20560;DHT22;10438;51.454;6.718;2022-12-16T08:47:21;-3.60;99.90
20560;DHT22;10438;51.454;6.718;2022-12-16T08:50:05;-3.60;99.90
20560;DHT22;10438;51.454;6.718;2022-12-16T08:52:49;-3.50;99.90
20560;DHT22;10438;51.454;6.718;2022-12-16T08:55:34;-3.50;99.90
20560;DHT22;10438;51.454;6.718;2022-12-16T08:58:18;-3.50;99.90
20560;DHT22;10438;51.454;6.718;2022-12-16T09:01:16;-3.50;99.90
20560;DHT22;10438;51.454;6.718;2022-12-16T09:04:00;-3.50;99.90
20560;DHT22;10438;51.454;6.718;2022-12-16T09:06:44;-3.50;99.90
20560;DHT22;10438;51.454;6.718;2022-12-16T09:09:28;-3.60;99.90
20560;DHT22;10438;51.454;6.718;2022-12-16T09:12:17;-3.50;99.90
20560;DHT22;10438;51.454;6.718;2022-12-16T09:15:01;-3.50;99.90
20560;DHT22;10438;51.454;6.718;2022-12-16T09:17:52;-3.40;99.90
20560;DHT22;10438;51.454;6.718;2022-12-16T09:20:37;-3.30;99.90
20560;DHT22;10438;51.454;6.718;2022-12-16T09:23:21;-3.30;99.90
20560;DHT22;10438;51.454;6.718;2022-12-16T09:26:05;-3.20;99.90
20560;DHT22;10438;51.454;6.718;2022-12-16T09:28:49;-3.20;99.90
20560;DHT22;10438;51.454;6.718;2022-12-16T09:31:33;-3.20;99.90
20560;DHT22;10438;51.454;6.718;2022-12-16T09:34:17;-3.10;99.90
20560;DHT22;10438;51.454;6.718;2022-12-16T09:37:01;-3.10;99.90
20560;DHT22;10438;51.454;6.718;2022-12-16T09:39:45;-3.00;99.90
20560;DHT22;10438;51.454;6.718;2022-12-16T09:45:43;-3.00;99.90
20560;DHT22;10438;51.454;6.718;2022-12-16T09:51:15;-2.90;99.90
20560;DHT22;10438;51.454;6.718;2022-12-16T09:54:01;-2.80;99.90
20560;DHT22;10438;51.454;6.718;2022-12-16T09:56:46;-2.80;99.90
20560;DHT22;10438;51.454;6.718;2022-12-16T09:59:34;-2.70;99.90
20560;DHT22;10438;51.454;6.718;2022-12-16T10:02:21;-2.70;99.90
20560;DHT22;10438;51.454;6.718;2022-12-16T10:05:10;-2.60;99.90
20560;DHT22;10438;51.454;6.718;2022-12-16T10:08:31;-2.50;99.90
20560;DHT22;10438;51.454;6.718;2022-12-16T10:11:40;-2.50;99.90
20560;DHT22;10438;51.454;6.718;2022-12-16T10:14:44;-2.40;99.90
20560;DHT22;10438;51.454;6.718;2022-12-16T10:17:30;-2.50;99.90
20560;DHT22;10438;51.454;6.718;2022-12-16T10:20:41;-2.60;99.90
20560;DHT22;10438;51.454;6.718;2022-12-16T10:24:31;-2.50;99.90
20560;DHT22;10438;51.454;6.718;2022-12-16T10:29:43;-2.50;99.90
20560;DHT22;10438;51.454;6.718;2022-12-16T10:32:47;-2.50;99.90
20560;DHT22;10438;51.454;6.718;2022-12-16T10:35:36;-2.40;99.90
20560;DHT22;10438;51.454;6.718;2022-12-16T10:38:42;-2.40;99.90
20560;DHT22;10438;51.454;6.718;2022-12-16T10:41:32;-2.30;99.90
20560;DHT22;10438;51.454;6.718;2022-12-16T10:44:33;-2.30;99.90
20560;DHT22;10438;51.454;6.718;2022-12-16T10:47:18;-2.30;99.90
20560;DHT22;10438;51.454;6.718;2022-12-16T10:50:02;-2.30;99.90
20560;DHT22;10438;51.454;6.718;2022-12-16T10:53:02;-2.30;99.90
20560;DHT22;10438;51.454;6.718;2022-12-16T10:59:02;-2.20;99.90
20560;DHT22;10438;51.454;6.718;2022-12-16T11:02:01;-2.20;99.90
20560;DHT22;10438;51.454;6.718;2022-12-16T11:04:46;-2.20;99.90
20560;DHT22;10438;51.454;6.718;2022-12-16T11:07:39;-2.10;99.90
20560;DHT22;10438;51.454;6.718;2022-12-16T11:10:40;-2.10;99.90
20560;DHT22;10438;51.454;6.718;2022-12-16T11:13:31;-2.10;99.90
20560;DHT22;10438;51.454;6.718;2022-12-16T11:16:27;-2.10;99.90
20560;DHT22;10438;51.454;6.718;2022-12-16T11:19:41;-2.00;99.90
20560;DHT22;10438;51.454;6.718;2022-12-16T11:22:24;-2.00;99.90
20560;DHT22;10438;51.454;6.718;2022-12-16T11:25:17;-2.10;99.90
20560;DHT22;10438;51.454;6.718;2022-12-16T11:28:13;-2.00;99.90
20560;DHT22;10438;51.454;6.718;2022-12-16T11:31:21;-1.90;99.90
20560;DHT22;10438;51.454;6.718;2022-12-16T11:34:04;-1.80;99.90
20560;DHT22;10438;51.454;6.718;2022-12-16T11:36:49;-1.80;99.90
20560;DHT22;10438;51.454;6.718;2022-12-16T11:39:34;-1.80;99.90
20560;DHT22;10438;51.454;6.718;2022-12-16T11:42:21;-1.80;99.90
20560;DHT22;10438;51.454;6.718;2022-12-16T11:45:13;-1.70;99.90
20560;DHT22;10438;51.454;6.718;2022-12-16T11:48:10;-1.70;99.90
20560;DHT22;10438;51.454;6.718;2022-12-16T11:50:56;-1.60;99.90
20560;DHT22;10438;51.454;6.718;2022-12-16T11:53:45;-1.60;99.90
20560;DHT22;10438;51.454;6.718;2022-12-16T11:56:33;-1.60;99.90
20560;DHT22;10438;51.454;6.718;2022-12-16T11:59:26;-1.60;99.90
20560;DHT22;10438;51.454;6.718;2022-12-16T12:02:17;-1.50;99.90
20560;DHT22;10438;51.454;6.718;2022-12-16T12:05:04;-1.40;99.90
20560;DHT22;10438;51.454;6.718;2022-12-16T12:08:37;-1.30;99.90
20560;DHT22;10438;51.454;6.718;2022-12-16T12:14:04;-1.30;99.90
20560;DHT22;10438;51.454;6.718;2022-12-16T12:23:06;-1.20;99.90
20560;DHT22;10438;51.454;6.718;2022-12-16T12:28:57;-1.00;99.90
20560;DHT22;10438;51.454;6.718;2022-12-16T12:38:13;-0.80;99.90
20560;DHT22;10438;51.454;6.718;2022-12-16T12:47:03;-0.60;99.90
20560;DHT22;10438;51.454;6.718;2022-12-16T12:59:00;-0.60;99.90
20560;DHT22;10438;51.454;6.718;2022-12-16T13:01:46;-0.60;99.90
20560;DHT22;10438;51.454;6.718;2022-12-16T13:04:32;-0.60;99.90
20560;DHT22;10438;51.454;6.718;2022-12-16T13:07:17;-0.70;99.90
20560;DHT22;10438;51.454;6.718;2022-12-16T13:16:02;-0.70;99.90
20560;DHT22;10438;51.454;6.718;2022-12-16T13:18:46;-0.60;99.90
20560;DHT22;10438;51.454;6.718;2022-12-16T13:24:41;-0.60;99.90
20560;DHT22;10438;51.454;6.718;2022-12-16T13:27:27;-0.60;99.90
20560;DHT22;10438;51.454;6.718;2022-12-16T13:33:22;-0.60;99.90
20560;DHT22;10438;51.454;6.718;2022-12-16T13:36:07;-0.60;99.90
20560;DHT22;10438;51.454;6.718;2022-12-16T13:38:54;-0.50;99.90
20560;DHT22;10438;51.454;6.718;2022-12-16T13:41:47;-0.60;99.90
20560;DHT22;10438;51.454;6.718;2022-12-16T13:47:32;-0.60;99.90
20560;DHT22;10438;51.454;6.718;2022-12-16T13:50:42;-0.60;99.90
20560;DHT22;10438;51.454;6.718;2022-12-16T13:53:52;-0.60;99.90
20560;DHT22;10438;51.454;6.718;2022-12-16T13:56:39;-0.60;99.90
20560;DHT22;10438;51.454;6.718;2022-12-16T13:59:27;-0.60;99.90
20560;DHT22;10438;51.454;6.718;2022-12-16T14:02:29;-0.50;99.90
20560;DHT22;10438;51.454;6.718;2022-12-16T14:05:28;-0.50;99.90
20560;DHT22;10438;51.454;6.718;2022-12-16T14:08:18;-0.50;99.90
20560;DHT22;10438;51.454;6.718;2022-12-16T14:11:06;-0.50;99.90
20560;DHT22;10438;51.454;6.718;2022-12-16T14:14:05;-0.40;99.90
20560;DHT22;10438;51.454;6.718;2022-12-16T14:16:58;-0.40;99.90
20560;DHT22;10438;51.454;6.718;2022-12-16T14:20:12;-0.40;99.90
20560;DHT22;10438;51.454;6.718;2022-12-16T14:23:08;-0.40;99.90
20560;DHT22;10438;51.454;6.718;2022-12-16T14:25:56;-0.40;99.90
20560;DHT22;10438;51.454;6.718;2022-12-16T14:28:42;-0.40;99.90
20560;DHT22;10438;51.454;6.718;2022-12-16T14:31:39;-0.40;99.90
20560;DHT22;10438;51.454;6.718;2022-12-16T14:34:31;-0.50;99.90
20560;DHT22;10438;51.454;6.718;2022-12-16T14:37:21;-0.50;99.90
20560;DHT22;10438;51.454;6.718;2022-12-16T14:40:30;-0.50;99.90
20560;DHT22;10438;51.454;6.718;2022-12-16T14:43:19;-0.60;99.90
20560;DHT22;10438;51.454;6.718;2022-12-16T14:46:04;-0.60;99.90
20560;DHT22;10438;51.454;6.718;2022-12-16T14:48:50;-0.60;99.90
20560;DHT22;10438;51.454;6.718;2022-12-16T14:51:36;-0.60;99.90
20560;DHT22;10438;51.454;6.718;2022-12-16T14:54:37;-0.60;99.90
20560;DHT22;10438;51.454;6.718;2022-12-16T14:57:25;-0.60;99.90
20560;DHT22;10438;51.454;6.718;2022-12-16T15:00:19;-0.60;99.90
20560;DHT22;10438;51.454;6.718;2022-12-16T15:06:13;-0.50;99.90
20560;DHT22;10438;51.454;6.718;2022-12-16T15:09:03;-0.50;99.90
20560;DHT22;10438;51.454;6.718;2022-12-16T15:11:51;-0.50;99.90
20560;DHT22;10438;51.454;6.718;2022-12-16T15:14:38;-0.50;99.90
20560;DHT22;10438;51.454;6.718;2022-12-16T15:17:31;-0.50;99.90
20560;DHT22;10438;51.454;6.718;2022-12-16T15:20:22;-0.50;99.90
20560;DHT22;10438;51.454;6.718;2022-12-16T15:23:27;-0.50;99.90
20560;DHT22;10438;51.454;6.718;2022-12-16T15:26:21;-0.50;99.90
20560;DHT22;10438;51.454;6.718;2022-12-16T15:40:59;-0.40;99.90
20560;DHT22;10438;51.454;6.718;2022-12-16T15:43:45;-0.40;99.90
20560;DHT22;10438;51.454;6.718;2022-12-16T15:46:30;-0.40;99.90
20560;DHT22;10438;51.454;6.718;2022-12-16T15:49:38;-0.40;99.90
20560;DHT22;10438;51.454;6.718;2022-12-16T15:58:22;-0.40;99.90
20560;DHT22;10438;51.454;6.718;2022-12-16T16:01:07;-0.40;99.90
20560;DHT22;10438;51.454;6.718;2022-12-16T16:03:53;-0.40;99.90
20560;DHT22;10438;51.454;6.718;2022-12-16T16:06:47;-0.40;99.90
20560;DHT22;10438;51.454;6.718;2022-12-16T16:09:33;-0.40;99.90
20560;DHT22;10438;51.454;6.718;2022-12-16T16:12:20;-0.50;99.90
20560;DHT22;10438;51.454;6.718;2022-12-16T16:15:06;-0.40;99.90
20560;DHT22;10438;51.454;6.718;2022-12-16T16:17:59;-0.40;99.90
20560;DHT22;10438;51.454;6.718;2022-12-16T16:20:44;-0.40;99.90
20560;DHT22;10438;51.454;6.718;2022-12-16T16:23:28;-0.40;99.90
20560;DHT22;10438;51.454;6.718;2022-12-16T16:26:15;-0.40;99.90
20560;DHT22;10438;51.454;6.718;2022-12-16T16:29:00;-0.40;99.90
20560;DHT22;10438;51.454;6.718;2022-12-16T16:31:47;-0.40;99.90
20560;DHT22;10438;51.454;6.718;2022-12-16T16:34:51;-0.50;99.90
20560;DHT22;10438;51.454;6.718;2022-12-16T16:37:35;-0.40;99.90
20560;DHT22;10438;51.454;6.718;2022-12-16T16:40:37;-0.50;99.90
20560;DHT22;10438;51.454;6.718;2022-12-16T16:43:22;-0.50;99.90
20560;DHT22;10438;51.454;6.718;2022-12-16T16:49:03;-0.50;99.90
20560;DHT22;10438;51.454;6.718;2022-12-16T16:51:47;-0.50;99.90
20560;DHT22;10438;51.454;6.718;2022-12-16T16:54:31;-0.50;99.90
20560;DHT22;10438;51.454;6.718;2022-12-16T16:57:15;-0.50;99.90
20560;DHT22;10438;51.454;6.718;2022-12-16T16:59:59;-0.50;99.90
20560;DHT22;10438;51.454;6.718;2022-12-16T17:02:43;-0.50;99.90
20560;DHT22;10438;51.454;6.718;2022-12-16T17:05:27;-0.50;99.90
20560;DHT22;10438;51.454;6.718;2022-12-16T17:08:11;-0.50;99.90
20560;DHT22;10438;51.454;6.718;2022-12-16T17:10:55;-0.50;99.90
20560;DHT22;10438;51.454;6.718;2022-12-16T17:13:39;-0.50;99.90
20560;DHT22;10438;51.454;6.718;2022-12-16T17:16:23;-0.50;99.90
20560;DHT22;10438;51.454;6.718;2022-12-16T17:19:07;-0.50;99.90
20560;DHT22;10438;51.454;6.718;2022-12-16T17:21:51;-0.60;99.90
20560;DHT22;10438;51.454;6.718;2022-12-16T17:24:35;-0.60;99.90
20560;DHT22;10438;51.454;6.718;2022-12-16T17:27:22;-0.60;99.90
20560;DHT22;10438;51.454;6.718;2022-12-16T17:30:16;-0.50;99.90
20560;DHT22;10438;51.454;6.718;2022-12-16T17:33:00;-0.50;99.90
20560;DHT22;10438;51.454;6.718;2022-12-16T17:35:47;-0.50;99.90
20560;DHT22;10438;51.454;6.718;2022-12-16T17:38:37;-0.50;99.90
20560;DHT22;10438;51.454;6.718;2022-12-16T17:41:22;-0.50;99.90
20560;DHT22;10438;51.454;6.718;2022-12-16T17:44:06;-0.50;99.90
20560;DHT22;10438;51.454;6.718;2022-12-16T17:46:50;-0.50;99.90
20560;DHT22;10438;51.454;6.718;2022-12-16T17:49:34;-0.50;99.90
20560;DHT22;10438;51.454;6.718;2022-12-16T17:52:19;-0.40;99.90
20560;DHT22;10438;51.454;6.718;2022-12-16T17:55:03;-0.50;99.90
20560;DHT22;10438;51.454;6.718;2022-12-16T17:57:47;-0.50;99.90
20560;DHT22;10438;51.454;6.718;2022-12-16T18:00:31;-0.50;99.90
20560;DHT22;10438;51.454;6.718;2022-12-16T18:03:15;-0.50;99.90
20560;DHT22;10438;51.454;6.718;2022-12-16T18:05:59;-0.40;99.90
20560;DHT22;10438;51.454;6.718;2022-12-16T18:08:43;-0.50;99.90
20560;DHT22;10438;51.454;6.718;2022-12-16T18:11:27;-0.50;99.90
20560;DHT22;10438;51.454;6.718;2022-12-16T18:14:11;-0.50;99.90
20560;DHT22;10438;51.454;6.718;2022-12-16T18:16:55;-0.50;99.90
20560;DHT22;10438;51.454;6.718;2022-12-16T18:19:39;-0.50;99.90
20560;DHT22;10438;51.454;6.718;2022-12-16T18:22:23;-0.60;99.90
20560;DHT22;10438;51.454;6.718;2022-12-16T18:25:07;-0.50;99.90
20560;DHT22;10438;51.454;6.718;2022-12-16T18:27:51;-0.50;99.90
20560;DHT22;10438;51.454;6.718;2022-12-16T18:30:36;-0.60;99.90
20560;DHT22;10438;51.454;6.718;2022-12-16T18:33:20;-0.50;99.90
20560;DHT22;10438;51.454;6.718;2022-12-16T18:36:04;-0.50;99.90
20560;DHT22;10438;51.454;6.718;2022-12-16T18:38:48;-0.50;99.90
20560;DHT22;10438;51.454;6.718;2022-12-16T18:41:44;-0.50;99.90
20560;DHT22;10438;51.454;6.718;2022-12-16T18:44:28;-0.50;99.90
20560;DHT22;10438;51.454;6.718;2022-12-16T18:47:12;-0.50;99.90
20560;DHT22;10438;51.454;6.718;2022-12-16T18:49:56;-0.50;99.90
20560;DHT22;10438;51.454;6.718;2022-12-16T18:52:40;-0.50;99.90
20560;DHT22;10438;51.454;6.718;2022-12-16T18:55:24;-0.50;99.90
20560;DHT22;10438;51.454;6.718;2022-12-16T18:58:09;-0.50;99.90